sensor_id;sensor_type;location;lat;lon;timestamp;P1;durP1;ratioP1;P2;durP2;ratioP2
78324;SDS011;67584;51.400;6.692;2023-04-01T00:00:51;5.13;;;2.28;;
78324;SDS011;67584;51.400;6.692;2023-04-01T00:03:17;3.45;;;2.25;;
78324;SDS011;67584;51.400;6.692;2023-04-01T00:05:43;4.38;;;3.00;;
78324;SDS011;67584;51.400;6.692;2023-04-01T00:08:10;5.30;;;2.35;;
78324;SDS011;67584;51.400;6.692;2023-04-01T00:10:36;4.80;;;2.47;;
78324;SDS011;67584;51.400;6.692;2023-04-01T00:13:01;3.22;;;2.05;;
78324;SDS011;67584;51.400;6.692;2023-04-01T00:15:27;5.25;;;2.58;;
78324;SDS011;67584;51.400;6.692;2023-04-01T00:17:53;5.45;;;2.53;;
78324;SDS011;67584;51.400;6.692;2023-04-01T00:20:20;3.40;;;2.17;;
78324;SDS011;67584;51.400;6.692;2023-04-01T00:22:46;5.45;;;2.78;;
78324;SDS011;67584;51.400;6.692;2023-04-01T00:25:11;3.83;;;2.10;;
78324;SDS011;67584;51.400;6.692;2023-04-01T00:27:37;4.38;;;1.65;;
78324;SDS011;67584;51.400;6.692;2023-04-01T00:30:03;2.80;;;1.30;;
78324;SDS011;67584;51.400;6.692;2023-04-01T00:32:29;3.33;;;1.50;;
78324;SDS011;67584;51.400;6.692;2023-04-01T00:34:56;3.00;;;1.38;;
78324;SDS011;67584;51.400;6.692;2023-04-01T00:37:23;2.22;;;1.23;;
78324;SDS011;67584;51.400;6.692;2023-04-01T00:39:49;2.90;;;1.30;;
78324;SDS011;67584;51.400;6.692;2023-04-01T00:42:15;2.35;;;1.35;;
78324;SDS011;67584;51.400;6.692;2023-04-01T00:44:41;1.17;;;0.85;;
78324;SDS011;67584;51.400;6.692;2023-04-01T00:47:07;2.28;;;1.23;;
78324;SDS011;67584;51.400;6.692;2023-04-01T00:49:33;1.98;;;1.17;;
78324;SDS011;67584;51.400;6.692;2023-04-01T00:52:06;3.08;;;1.13;;
78324;SDS011;67584;51.400;6.692;2023-04-01T00:54:33;1.90;;;1.30;;
78324;SDS011;67584;51.400;6.692;2023-04-01T00:57:02;3.97;;;1.50;;
78324;SDS011;67584;51.400;6.692;2023-04-01T00:59:33;1.42;;;1.10;;
78324;SDS011;67584;51.400;6.692;2023-04-01T01:02:03;2.83;;;1.20;;
78324;SDS011;67584;51.400;6.692;2023-04-01T01:04:32;4.13;;;1.73;;
78324;SDS011;67584;51.400;6.692;2023-04-01T01:07:06;0.88;;;0.73;;
78324;SDS011;67584;51.400;6.692;2023-04-01T01:29:31;2.60;;;1.08;;
78324;SDS011;67584;51.400;6.692;2023-04-01T01:37:43;2.60;;;1.20;;
78324;SDS011;67584;51.400;6.692;2023-04-01T01:40:11;2.83;;;1.40;;
78324;SDS011;67584;51.400;6.692;2023-04-01T01:42:43;1.73;;;1.15;;
78324;SDS011;67584;51.400;6.692;2023-04-01T01:45:12;1.73;;;1.30;;
78324;SDS011;67584;51.400;6.692;2023-04-01T01:47:43;2.88;;;1.40;;
78324;SDS011;67584;51.400;6.692;2023-04-01T01:50:11;1.33;;;1.00;;
78324;SDS011;67584;51.400;6.692;2023-04-01T01:52:38;2.55;;;1.35;;
78324;SDS011;67584;51.400;6.692;2023-04-01T01:55:24;3.30;;;1.42;;
78324;SDS011;67584;51.400;6.692;2023-04-01T01:57:57;5.00;;;1.92;;
78324;SDS011;67584;51.400;6.692;2023-04-01T02:00:27;1.98;;;1.33;;
78324;SDS011;67584;51.400;6.692;2023-04-01T02:02:53;1.77;;;1.20;;
78324;SDS011;67584;51.400;6.692;2023-04-01T02:05:21;2.72;;;1.55;;
78324;SDS011;67584;51.400;6.692;2023-04-01T02:10:44;3.60;;;1.88;;
78324;SDS011;67584;51.400;6.692;2023-04-01T02:13:31;4.28;;;2.40;;
78324;SDS011;67584;51.400;6.692;2023-04-01T02:16:16;8.27;;;3.40;;
78324;SDS011;67584;51.400;6.692;2023-04-01T02:18:48;2.67;;;1.60;;
78324;SDS011;67584;51.400;6.692;2023-04-01T02:21:16;3.53;;;1.95;;
78324;SDS011;67584;51.400;6.692;2023-04-01T02:23:45;6.07;;;2.45;;
78324;SDS011;67584;51.400;6.692;2023-04-01T02:26:12;6.93;;;2.58;;
78324;SDS011;67584;51.400;6.692;2023-04-01T02:28:39;6.10;;;2.22;;
78324;SDS011;67584;51.400;6.692;2023-04-01T02:31:08;4.40;;;1.40;;
78324;SDS011;67584;51.400;6.692;2023-04-01T02:33:35;2.15;;;1.08;;
78324;SDS011;67584;51.400;6.692;2023-04-01T02:36:04;4.18;;;1.17;;
78324;SDS011;67584;51.400;6.692;2023-04-01T02:38:30;8.27;;;1.70;;
78324;SDS011;67584;51.400;6.692;2023-04-01T02:40:58;3.60;;;1.60;;
78324;SDS011;67584;51.400;6.692;2023-04-01T02:43:25;4.97;;;1.70;;
78324;SDS011;67584;51.400;6.692;2023-04-01T02:45:51;3.60;;;1.30;;
78324;SDS011;67584;51.400;6.692;2023-04-01T02:48:17;1.50;;;1.20;;
78324;SDS011;67584;51.400;6.692;2023-04-01T02:50:43;2.20;;;1.02;;
78324;SDS011;67584;51.400;6.692;2023-04-01T02:53:09;2.42;;;1.60;;
78324;SDS011;67584;51.400;6.692;2023-04-01T02:55:35;3.20;;;1.40;;
78324;SDS011;67584;51.400;6.692;2023-04-01T02:58:00;0.98;;;0.88;;
78324;SDS011;67584;51.400;6.692;2023-04-01T03:00:27;1.88;;;1.23;;
78324;SDS011;67584;51.400;6.692;2023-04-01T03:02:53;1.60;;;1.15;;
78324;SDS011;67584;51.400;6.692;2023-04-01T03:05:19;4.07;;;1.60;;
78324;SDS011;67584;51.400;6.692;2023-04-01T03:07:45;1.63;;;1.40;;
78324;SDS011;67584;51.400;6.692;2023-04-01T03:10:12;2.28;;;1.52;;
78324;SDS011;67584;51.400;6.692;2023-04-01T03:12:38;2.85;;;1.52;;
78324;SDS011;67584;51.400;6.692;2023-04-01T03:15:04;5.10;;;1.83;;
78324;SDS011;67584;51.400;6.692;2023-04-01T03:17:30;2.58;;;1.60;;
78324;SDS011;67584;51.400;6.692;2023-04-01T03:19:55;3.45;;;2.10;;
78324;SDS011;67584;51.400;6.692;2023-04-01T03:22:21;3.33;;;1.90;;
78324;SDS011;67584;51.400;6.692;2023-04-01T03:24:48;4.28;;;2.40;;
78324;SDS011;67584;51.400;6.692;2023-04-01T03:27:14;8.90;;;3.63;;
78324;SDS011;67584;51.400;6.692;2023-04-01T03:29:40;7.22;;;3.55;;
78324;SDS011;67584;51.400;6.692;2023-04-01T03:32:07;4.57;;;1.80;;
78324;SDS011;67584;51.400;6.692;2023-04-01T03:34:32;6.53;;;3.15;;
78324;SDS011;67584;51.400;6.692;2023-04-01T03:36:58;5.63;;;3.15;;
78324;SDS011;67584;51.400;6.692;2023-04-01T03:39:24;5.72;;;2.40;;
78324;SDS011;67584;51.400;6.692;2023-04-01T03:41:50;5.70;;;3.05;;
78324;SDS011;67584;51.400;6.692;2023-04-01T03:44:16;6.15;;;3.05;;
78324;SDS011;67584;51.400;6.692;2023-04-01T03:46:44;3.10;;;1.90;;
78324;SDS011;67584;51.400;6.692;2023-04-01T03:49:09;4.97;;;2.42;;
78324;SDS011;67584;51.400;6.692;2023-04-01T03:51:43;10.95;;;5.80;;
78324;SDS011;67584;51.400;6.692;2023-04-01T03:54:09;8.02;;;3.67;;
78324;SDS011;67584;51.400;6.692;2023-04-01T03:56:36;6.20;;;3.28;;
78324;SDS011;67584;51.400;6.692;2023-04-01T03:59:03;7.22;;;3.38;;
78324;SDS011;67584;51.400;6.692;2023-04-01T04:01:30;5.50;;;3.30;;
78324;SDS011;67584;51.400;6.692;2023-04-01T04:03:56;8.13;;;4.38;;
78324;SDS011;67584;51.400;6.692;2023-04-01T04:06:23;6.70;;;4.07;;
78324;SDS011;67584;51.400;6.692;2023-04-01T04:08:51;5.68;;;3.65;;
78324;SDS011;67584;51.400;6.692;2023-04-01T04:11:17;8.75;;;4.18;;
78324;SDS011;67584;51.400;6.692;2023-04-01T04:13:45;8.15;;;4.15;;
78324;SDS011;67584;51.400;6.692;2023-04-01T04:16:14;6.05;;;3.50;;
78324;SDS011;67584;51.400;6.692;2023-04-01T04:18:45;7.13;;;3.50;;
78324;SDS011;67584;51.400;6.692;2023-04-01T04:21:12;5.75;;;2.88;;
78324;SDS011;67584;51.400;6.692;2023-04-01T04:23:40;5.90;;;2.90;;
78324;SDS011;67584;51.400;6.692;2023-04-01T04:26:07;3.45;;;2.78;;
78324;SDS011;67584;51.400;6.692;2023-04-01T04:28:34;2.65;;;1.35;;
78324;SDS011;67584;51.400;6.692;2023-04-01T04:31:01;3.03;;;1.70;;
78324;SDS011;67584;51.400;6.692;2023-04-01T04:33:27;3.08;;;1.77;;
78324;SDS011;67584;51.400;6.692;2023-04-01T04:35:57;2.78;;;1.88;;
78324;SDS011;67584;51.400;6.692;2023-04-01T04:38:23;4.03;;;1.80;;
78324;SDS011;67584;51.400;6.692;2023-04-01T04:40:50;2.33;;;1.40;;
78324;SDS011;67584;51.400;6.692;2023-04-01T04:43:16;1.50;;;0.95;;
78324;SDS011;67584;51.400;6.692;2023-04-01T04:45:43;2.78;;;1.60;;
78324;SDS011;67584;51.400;6.692;2023-04-01T04:48:10;2.00;;;1.42;;
78324;SDS011;67584;51.400;6.692;2023-04-01T04:50:41;2.47;;;1.95;;
78324;SDS011;67584;51.400;6.692;2023-04-01T04:53:13;3.15;;;2.10;;
78324;SDS011;67584;51.400;6.692;2023-04-01T04:55:44;5.28;;;2.20;;
78324;SDS011;67584;51.400;6.692;2023-04-01T04:58:43;4.00;;;2.35;;
78324;SDS011;67584;51.400;6.692;2023-04-01T05:01:15;5.18;;;2.95;;
78324;SDS011;67584;51.400;6.692;2023-04-01T05:03:42;5.22;;;2.63;;
78324;SDS011;67584;51.400;6.692;2023-04-01T05:06:08;6.53;;;4.28;;
78324;SDS011;67584;51.400;6.692;2023-04-01T05:08:36;5.65;;;3.05;;
78324;SDS011;67584;51.400;6.692;2023-04-01T05:11:06;5.18;;;3.00;;
78324;SDS011;67584;51.400;6.692;2023-04-01T05:13:35;3.00;;;1.92;;
78324;SDS011;67584;51.400;6.692;2023-04-01T05:16:01;3.42;;;2.22;;
78324;SDS011;67584;51.400;6.692;2023-04-01T05:18:27;4.30;;;2.60;;
78324;SDS011;67584;51.400;6.692;2023-04-01T05:20:53;2.38;;;1.95;;
78324;SDS011;67584;51.400;6.692;2023-04-01T05:23:20;2.03;;;1.67;;
78324;SDS011;67584;51.400;6.692;2023-04-01T05:25:50;2.58;;;1.98;;
78324;SDS011;67584;51.400;6.692;2023-04-01T05:28:19;3.47;;;2.30;;
78324;SDS011;67584;51.400;6.692;2023-04-01T05:30:46;3.63;;;2.22;;
78324;SDS011;67584;51.400;6.692;2023-04-01T05:33:27;3.63;;;2.25;;
78324;SDS011;67584;51.400;6.692;2023-04-01T05:35:53;4.80;;;3.45;;
78324;SDS011;67584;51.400;6.692;2023-04-01T05:38:19;3.95;;;2.70;;
78324;SDS011;67584;51.400;6.692;2023-04-01T05:40:45;2.90;;;2.35;;
78324;SDS011;67584;51.400;6.692;2023-04-01T05:43:11;3.92;;;2.40;;
78324;SDS011;67584;51.400;6.692;2023-04-01T05:45:37;4.38;;;2.70;;
78324;SDS011;67584;51.400;6.692;2023-04-01T05:48:28;4.88;;;2.60;;
78324;SDS011;67584;51.400;6.692;2023-04-01T05:50:54;3.55;;;2.58;;
78324;SDS011;67584;51.400;6.692;2023-04-01T05:53:20;6.93;;;2.45;;
78324;SDS011;67584;51.400;6.692;2023-04-01T05:55:46;3.55;;;2.80;;
78324;SDS011;67584;51.400;6.692;2023-04-01T05:58:12;2.58;;;2.10;;
78324;SDS011;67584;51.400;6.692;2023-04-01T06:00:41;4.00;;;2.78;;
78324;SDS011;67584;51.400;6.692;2023-04-01T06:03:07;3.20;;;2.40;;
78324;SDS011;67584;51.400;6.692;2023-04-01T06:05:40;4.95;;;3.35;;
78324;SDS011;67584;51.400;6.692;2023-04-01T06:08:14;3.50;;;2.83;;
78324;SDS011;67584;51.400;6.692;2023-04-01T06:10:47;2.58;;;2.22;;
78324;SDS011;67584;51.400;6.692;2023-04-01T06:27:19;4.05;;;2.58;;
78324;SDS011;67584;51.400;6.692;2023-04-01T06:35:39;4.55;;;2.30;;
78324;SDS011;67584;51.400;6.692;2023-04-01T06:42:16;3.60;;;2.45;;
78324;SDS011;67584;51.400;6.692;2023-04-01T06:44:41;5.15;;;3.03;;
78324;SDS011;67584;51.400;6.692;2023-04-01T06:47:58;5.70;;;3.53;;
78324;SDS011;67584;51.400;6.692;2023-04-01T06:50:55;5.38;;;2.90;;
78324;SDS011;67584;51.400;6.692;2023-04-01T06:54:12;4.40;;;2.78;;
78324;SDS011;67584;51.400;6.692;2023-04-01T06:57:13;4.72;;;2.83;;
78324;SDS011;67584;51.400;6.692;2023-04-01T07:00:03;4.53;;;2.95;;
78324;SDS011;67584;51.400;6.692;2023-04-01T07:02:46;4.68;;;2.65;;
78324;SDS011;67584;51.400;6.692;2023-04-01T07:05:20;7.80;;;3.85;;
78324;SDS011;67584;51.400;6.692;2023-04-01T07:07:49;4.85;;;3.00;;
78324;SDS011;67584;51.400;6.692;2023-04-01T07:11:01;5.47;;;3.47;;
78324;SDS011;67584;51.400;6.692;2023-04-01T07:19:22;4.13;;;2.85;;
78324;SDS011;67584;51.400;6.692;2023-04-01T07:22:45;5.45;;;3.83;;
78324;SDS011;67584;51.400;6.692;2023-04-01T07:25:24;3.60;;;2.85;;
78324;SDS011;67584;51.400;6.692;2023-04-01T07:28:26;4.50;;;2.85;;
78324;SDS011;67584;51.400;6.692;2023-04-01T07:38:59;3.40;;;2.60;;
78324;SDS011;67584;51.400;6.692;2023-04-01T07:45:15;3.88;;;3.10;;
78324;SDS011;67584;51.400;6.692;2023-04-01T07:47:28;4.80;;;3.17;;
78324;SDS011;67584;51.400;6.692;2023-04-01T07:50:11;3.17;;;2.47;;
78324;SDS011;67584;51.400;6.692;2023-04-01T08:00:58;5.55;;;3.83;;
78324;SDS011;67584;51.400;6.692;2023-04-01T08:23:30;6.78;;;3.97;;
78324;SDS011;67584;51.400;6.692;2023-04-01T08:26:04;5.95;;;3.80;;
78324;SDS011;67584;51.400;6.692;2023-04-01T08:28:54;5.03;;;3.25;;
78324;SDS011;67584;51.400;6.692;2023-04-01T08:31:36;3.40;;;3.10;;
78324;SDS011;67584;51.400;6.692;2023-04-01T08:34:23;5.22;;;2.97;;
78324;SDS011;67584;51.400;6.692;2023-04-01T08:36:59;4.78;;;3.33;;
78324;SDS011;67584;51.400;6.692;2023-04-01T08:44:42;5.30;;;3.45;;
78324;SDS011;67584;51.400;6.692;2023-04-01T08:47:44;5.88;;;3.60;;
78324;SDS011;67584;51.400;6.692;2023-04-01T09:12:44;8.25;;;4.70;;
78324;SDS011;67584;51.400;6.692;2023-04-01T09:20:45;9.73;;;5.28;;
78324;SDS011;67584;51.400;6.692;2023-04-01T09:32:03;11.48;;;5.95;;
78324;SDS011;67584;51.400;6.692;2023-04-01T09:35:23;8.45;;;4.88;;
78324;SDS011;67584;51.400;6.692;2023-04-01T09:47:07;12.48;;;6.95;;
78324;SDS011;67584;51.400;6.692;2023-04-01T09:49:54;15.00;;;8.48;;
78324;SDS011;67584;51.400;6.692;2023-04-01T10:01:16;9.85;;;5.60;;
78324;SDS011;67584;51.400;6.692;2023-04-01T10:07:10;11.15;;;6.30;;
78324;SDS011;67584;51.400;6.692;2023-04-01T10:13:26;12.73;;;6.80;;
78324;SDS011;67584;51.400;6.692;2023-04-01T10:16:03;10.80;;;6.60;;
78324;SDS011;67584;51.400;6.692;2023-04-01T10:18:50;9.65;;;5.82;;
78324;SDS011;67584;51.400;6.692;2023-04-01T10:30:23;11.75;;;6.63;;
78324;SDS011;67584;51.400;6.692;2023-04-01T10:33:08;10.75;;;6.78;;
78324;SDS011;67584;51.400;6.692;2023-04-01T10:36:31;10.88;;;7.22;;
78324;SDS011;67584;51.400;6.692;2023-04-01T10:42:34;14.77;;;8.23;;
78324;SDS011;67584;51.400;6.692;2023-04-01T10:56:49;12.95;;;7.45;;
78324;SDS011;67584;51.400;6.692;2023-04-01T11:06:30;14.65;;;8.65;;
78324;SDS011;67584;51.400;6.692;2023-04-01T11:12:02;18.95;;;9.55;;
78324;SDS011;67584;51.400;6.692;2023-04-01T11:30:33;10.98;;;6.90;;
78324;SDS011;67584;51.400;6.692;2023-04-01T11:51:01;13.23;;;7.97;;
78324;SDS011;67584;51.400;6.692;2023-04-01T12:01:59;9.57;;;6.03;;
78324;SDS011;67584;51.400;6.692;2023-04-01T12:10:18;11.95;;;5.88;;
78324;SDS011;67584;51.400;6.692;2023-04-01T12:12:56;7.95;;;5.40;;
78324;SDS011;67584;51.400;6.692;2023-04-01T12:18:18;8.10;;;4.97;;
78324;SDS011;67584;51.400;6.692;2023-04-01T12:21:14;9.70;;;5.68;;
78324;SDS011;67584;51.400;6.692;2023-04-01T12:35:36;9.40;;;5.90;;
78324;SDS011;67584;51.400;6.692;2023-04-01T12:38:16;10.25;;;6.32;;
78324;SDS011;67584;51.400;6.692;2023-04-01T12:41:08;11.23;;;6.32;;
78324;SDS011;67584;51.400;6.692;2023-04-01T12:46:16;9.48;;;6.03;;
78324;SDS011;67584;51.400;6.692;2023-04-01T12:51:56;10.23;;;4.95;;
78324;SDS011;67584;51.400;6.692;2023-04-01T13:08:20;8.77;;;4.75;;
78324;SDS011;67584;51.400;6.692;2023-04-01T13:16:33;9.75;;;5.60;;
78324;SDS011;67584;51.400;6.692;2023-04-01T13:19:07;10.30;;;6.10;;
78324;SDS011;67584;51.400;6.692;2023-04-01T13:24:24;7.72;;;5.25;;
78324;SDS011;67584;51.400;6.692;2023-04-01T13:26:56;8.75;;;5.18;;
78324;SDS011;67584;51.400;6.692;2023-04-01T13:29:40;13.15;;;7.60;;
78324;SDS011;67584;51.400;6.692;2023-04-01T13:32:20;10.65;;;6.05;;
78324;SDS011;67584;51.400;6.692;2023-04-01T13:35:10;14.50;;;8.15;;
78324;SDS011;67584;51.400;6.692;2023-04-01T13:40:39;10.95;;;6.43;;
78324;SDS011;67584;51.400;6.692;2023-04-01T13:43:49;8.88;;;6.40;;
78324;SDS011;67584;51.400;6.692;2023-04-01T13:49:06;11.27;;;6.13;;
78324;SDS011;67584;51.400;6.692;2023-04-01T13:55:28;11.25;;;5.00;;
78324;SDS011;67584;51.400;6.692;2023-04-01T13:57:59;8.35;;;6.25;;
78324;SDS011;67584;51.400;6.692;2023-04-01T14:00:55;9.57;;;6.05;;
78324;SDS011;67584;51.400;6.692;2023-04-01T14:06:27;9.88;;;5.93;;
78324;SDS011;67584;51.400;6.692;2023-04-01T14:20:22;11.07;;;7.00;;
78324;SDS011;67584;51.400;6.692;2023-04-01T14:23:42;7.47;;;5.28;;
78324;SDS011;67584;51.400;6.692;2023-04-01T14:37:29;8.32;;;5.20;;
78324;SDS011;67584;51.400;6.692;2023-04-01T14:40:20;5.20;;;3.88;;
78324;SDS011;67584;51.400;6.692;2023-04-01T14:43:14;5.68;;;3.88;;
78324;SDS011;67584;51.400;6.692;2023-04-01T14:46:14;5.30;;;3.80;;
78324;SDS011;67584;51.400;6.692;2023-04-01T14:51:47;3.60;;;2.88;;
78324;SDS011;67584;51.400;6.692;2023-04-01T14:54:15;7.05;;;4.35;;
78324;SDS011;67584;51.400;6.692;2023-04-01T14:56:50;7.53;;;5.18;;
78324;SDS011;67584;51.400;6.692;2023-04-01T14:59:39;6.50;;;4.22;;
78324;SDS011;67584;51.400;6.692;2023-04-01T15:02:23;5.47;;;3.65;;
78324;SDS011;67584;51.400;6.692;2023-04-01T15:08:12;5.97;;;3.58;;
78324;SDS011;67584;51.400;6.692;2023-04-01T15:21:50;5.72;;;3.97;;
78324;SDS011;67584;51.400;6.692;2023-04-01T15:24:47;7.97;;;4.88;;
78324;SDS011;67584;51.400;6.692;2023-04-01T15:27:33;5.65;;;3.88;;
78324;SDS011;67584;51.400;6.692;2023-04-01T15:30:54;5.03;;;3.28;;
78324;SDS011;67584;51.400;6.692;2023-04-01T15:36:00;5.00;;;3.58;;
78324;SDS011;67584;51.400;6.692;2023-04-01T15:41:39;4.80;;;3.30;;
78324;SDS011;67584;51.400;6.692;2023-04-01T15:46:59;6.07;;;3.38;;
78324;SDS011;67584;51.400;6.692;2023-04-01T15:52:15;5.32;;;3.45;;
78324;SDS011;67584;51.400;6.692;2023-04-01T16:00:47;5.40;;;4.00;;
78324;SDS011;67584;51.400;6.692;2023-04-01T16:03:36;4.43;;;3.20;;
78324;SDS011;67584;51.400;6.692;2023-04-01T16:11:34;5.60;;;3.22;;
78324;SDS011;67584;51.400;6.692;2023-04-01T16:14:18;4.70;;;3.20;;
78324;SDS011;67584;51.400;6.692;2023-04-01T16:20:34;5.85;;;3.63;;
78324;SDS011;67584;51.400;6.692;2023-04-01T16:34:14;6.78;;;4.45;;
78324;SDS011;67584;51.400;6.692;2023-04-01T16:36:47;6.78;;;4.40;;
78324;SDS011;67584;51.400;6.692;2023-04-01T16:41:59;7.03;;;4.22;;
78324;SDS011;67584;51.400;6.692;2023-04-01T16:45:25;6.90;;;4.82;;
78324;SDS011;67584;51.400;6.692;2023-04-01T16:47:42;9.60;;;4.75;;
78324;SDS011;67584;51.400;6.692;2023-04-01T16:50:17;8.30;;;5.20;;
78324;SDS011;67584;51.400;6.692;2023-04-01T16:55:35;6.70;;;4.20;;
78324;SDS011;67584;51.400;6.692;2023-04-01T16:58:34;6.93;;;4.50;;
78324;SDS011;67584;51.400;6.692;2023-04-01T17:01:21;8.48;;;5.82;;
78324;SDS011;67584;51.400;6.692;2023-04-01T17:04:00;8.13;;;5.07;;
78324;SDS011;67584;51.400;6.692;2023-04-01T17:18:58;7.07;;;4.88;;
78324;SDS011;67584;51.400;6.692;2023-04-01T17:27:17;8.73;;;5.93;;
78324;SDS011;67584;51.400;6.692;2023-04-01T17:35:50;7.65;;;5.35;;
78324;SDS011;67584;51.400;6.692;2023-04-01T17:44:21;7.50;;;5.47;;
78324;SDS011;67584;51.400;6.692;2023-04-01T18:06:21;11.93;;;7.72;;
78324;SDS011;67584;51.400;6.692;2023-04-01T18:25:38;15.27;;;8.27;;
78324;SDS011;67584;51.400;6.692;2023-04-01T18:33:55;14.23;;;7.78;;
78324;SDS011;67584;51.400;6.692;2023-04-01T18:36:42;15.88;;;8.73;;
78324;SDS011;67584;51.400;6.692;2023-04-01T18:44:38;15.18;;;9.38;;
78324;SDS011;67584;51.400;6.692;2023-04-01T18:47:13;17.45;;;9.23;;
78324;SDS011;67584;51.400;6.692;2023-04-01T18:52:42;18.75;;;9.40;;
78324;SDS011;67584;51.400;6.692;2023-04-01T19:01:04;8.63;;;5.50;;
78324;SDS011;67584;51.400;6.692;2023-04-01T19:06:32;23.10;;;10.15;;
78324;SDS011;67584;51.400;6.692;2023-04-01T19:09:42;20.77;;;9.75;;
78324;SDS011;67584;51.400;6.692;2023-04-01T19:15:17;17.67;;;9.20;;
78324;SDS011;67584;51.400;6.692;2023-04-01T19:20:52;20.05;;;10.32;;
78324;SDS011;67584;51.400;6.692;2023-04-01T19:26:05;20.85;;;10.50;;
78324;SDS011;67584;51.400;6.692;2023-04-01T19:28:45;18.17;;;10.00;;
78324;SDS011;67584;51.400;6.692;2023-04-01T19:36:50;14.40;;;7.90;;
78324;SDS011;67584;51.400;6.692;2023-04-01T19:39:31;9.80;;;5.68;;
78324;SDS011;67584;51.400;6.692;2023-04-01T19:45:19;6.60;;;4.40;;
78324;SDS011;67584;51.400;6.692;2023-04-01T19:51:06;6.03;;;4.22;;
78324;SDS011;67584;51.400;6.692;2023-04-01T19:53:58;5.35;;;4.25;;
78324;SDS011;67584;51.400;6.692;2023-04-01T19:59:30;4.78;;;4.07;;
78324;SDS011;67584;51.400;6.692;2023-04-01T20:02:18;4.90;;;3.58;;
78324;SDS011;67584;51.400;6.692;2023-04-01T20:05:16;5.93;;;3.40;;
78324;SDS011;67584;51.400;6.692;2023-04-01T20:08:07;4.72;;;3.67;;
78324;SDS011;67584;51.400;6.692;2023-04-01T20:16:11;5.18;;;3.55;;
78324;SDS011;67584;51.400;6.692;2023-04-01T20:24:01;4.88;;;3.72;;
78324;SDS011;67584;51.400;6.692;2023-04-01T20:26:39;4.68;;;3.38;;
78324;SDS011;67584;51.400;6.692;2023-04-01T20:34:39;5.22;;;3.78;;
78324;SDS011;67584;51.400;6.692;2023-04-01T20:37:35;5.53;;;4.18;;
78324;SDS011;67584;51.400;6.692;2023-04-01T20:46:11;5.45;;;4.03;;
78324;SDS011;67584;51.400;6.692;2023-04-01T20:49:20;6.75;;;4.85;;
78324;SDS011;67584;51.400;6.692;2023-04-01T21:08:36;4.72;;;3.95;;
78324;SDS011;67584;51.400;6.692;2023-04-01T21:19:12;6.63;;;4.47;;
78324;SDS011;67584;51.400;6.692;2023-04-01T21:33:30;5.90;;;3.75;;
78324;SDS011;67584;51.400;6.692;2023-04-01T21:36:51;6.05;;;4.30;;
78324;SDS011;67584;51.400;6.692;2023-04-01T21:44:51;5.57;;;3.60;;
78324;SDS011;67584;51.400;6.692;2023-04-01T21:47:46;5.30;;;2.60;;
78324;SDS011;67584;51.400;6.692;2023-04-01T21:56:41;4.75;;;3.50;;
78324;SDS011;67584;51.400;6.692;2023-04-01T22:07:36;5.85;;;4.18;;
78324;SDS011;67584;51.400;6.692;2023-04-01T22:12:59;5.18;;;4.18;;
78324;SDS011;67584;51.400;6.692;2023-04-01T22:18:31;6.03;;;3.90;;
78324;SDS011;67584;51.400;6.692;2023-04-01T22:43:24;5.68;;;4.30;;
78324;SDS011;67584;51.400;6.692;2023-04-01T22:48:41;5.95;;;4.80;;
78324;SDS011;67584;51.400;6.692;2023-04-01T22:54:06;5.25;;;4.40;;
78324;SDS011;67584;51.400;6.692;2023-04-01T22:56:41;5.53;;;4.03;;
78324;SDS011;67584;51.400;6.692;2023-04-01T23:01:49;4.90;;;3.78;;
78324;SDS011;67584;51.400;6.692;2023-04-01T23:04:21;5.97;;;4.20;;
78324;SDS011;67584;51.400;6.692;2023-04-01T23:06:56;5.85;;;4.40;;
78324;SDS011;67584;51.400;6.692;2023-04-01T23:09:25;7.03;;;4.93;;
78324;SDS011;67584;51.400;6.692;2023-04-01T23:12:09;8.48;;;5.38;;
78324;SDS011;67584;51.400;6.692;2023-04-01T23:14:58;8.57;;;4.95;;
78324;SDS011;67584;51.400;6.692;2023-04-01T23:20:17;6.95;;;4.53;;
78324;SDS011;67584;51.400;6.692;2023-04-01T23:23:06;6.05;;;4.43;;
78324;SDS011;67584;51.400;6.692;2023-04-01T23:26:17;5.63;;;4.57;;
78324;SDS011;67584;51.400;6.692;2023-04-01T23:28:32;7.05;;;5.28;;
78324;SDS011;67584;51.400;6.692;2023-04-01T23:31:12;7.35;;;4.97;;
78324;SDS011;67584;51.400;6.692;2023-04-01T23:34:17;6.85;;;4.82;;
78324;SDS011;67584;51.400;6.692;2023-04-01T23:36:53;8.00;;;4.63;;
78324;SDS011;67584;51.400;6.692;2023-04-01T23:39:40;7.55;;;5.25;;
78324;SDS011;67584;51.400;6.692;2023-04-01T23:42:13;6.15;;;4.43;;
78324;SDS011;67584;51.400;6.692;2023-04-01T23:44:40;5.10;;;4.03;;
78324;SDS011;67584;51.400;6.692;2023-04-01T23:47:08;7.50;;;4.43;;
78324;SDS011;67584;51.400;6.692;2023-04-01T23:49:41;6.40;;;4.13;;
78324;SDS011;67584;51.400;6.692;2023-04-01T23:52:36;5.28;;;3.80;;
78324;SDS011;67584;51.400;6.692;2023-04-01T23:57:35;4.45;;;3.72;;
